ENST/SSJ METAR and TAF weather

Enter ICAO airport designator
Station Type Date Time Source
ENST METAR 2020/01/22 12:20 UTC NOAA

ENST 221220Z 29005KT 230V350 9999 VCSH FEW008 SCT12CB SCT025 04/00 Q1019 RMK WIND 300FT 30007KT


Station Type Date Time Source
ENST Decoded METAR 2020/01/22 12:20 UTC NOAA

Sandnessjoen / Stokka, Norway (ENST) 65-58N 012-28E 17M
Jan 22, 2020 - 07:20 AM EST / 2020.01.22 1220 UTC
Wind: from the WNW (290 degrees) at 6 MPH (5 KT) (direction variable):0
Visibility: greater than 7 mile(s):0
Sky conditions: partly cloudy
Weather: showers in the vicinity; Cumulonimbus clouds observed
Temperature: 39 F (4 C)
Dew Point: 32 F (0 C)
Relative Humidity: 75%
Pressure (altimeter): 30.09 in. Hg (1019 hPa)
ob: ENST 221220Z 29005KT 230V350 9999 VCSH FEW008 SCT12CB SCT025 04/00 Q1019 RMK WIND 300FT 30007KT
cycle: 12

Station Type Date Time Source
ENST TAF UTC NOAA

Error!

Example: see airport list